sensor_id;sensor_type;location;lat;lon;timestamp;temperature;humidity
14359;DHT22;7263;49.418;11.064;2024-02-26T00:06:40;0.90;1.00
14359;DHT22;7263;49.418;11.064;2024-02-26T00:09:07;0.90;1.00
14359;DHT22;7263;49.418;11.064;2024-02-26T00:11:39;0.80;1.00
14359;DHT22;7263;49.418;11.064;2024-02-26T00:14:08;0.80;1.00
14359;DHT22;7263;49.418;11.064;2024-02-26T00:24:21;0.60;1.00
14359;DHT22;7263;49.418;11.064;2024-02-26T00:29:22;0.50;1.00
14359;DHT22;7263;49.418;11.064;2024-02-26T00:34:21;0.50;1.00
14359;DHT22;7263;49.418;11.064;2024-02-26T00:36:55;0.50;1.00
14359;DHT22;7263;49.418;11.064;2024-02-26T00:39:28;0.40;1.00
14359;DHT22;7263;49.418;11.064;2024-02-26T00:44:31;0.40;1.00
14359;DHT22;7263;49.418;11.064;2024-02-26T00:52:14;0.30;1.00
14359;DHT22;7263;49.418;11.064;2024-02-26T00:54:47;0.30;1.00
14359;DHT22;7263;49.418;11.064;2024-02-26T01:09:37;0.20;1.00
14359;DHT22;7263;49.418;11.064;2024-02-26T01:12:06;0.20;1.00
14359;DHT22;7263;49.418;11.064;2024-02-26T01:17:03;0.10;1.00
14359;DHT22;7263;49.418;11.064;2024-02-26T01:29:28;0.00;1.00
14359;DHT22;7263;49.418;11.064;2024-02-26T01:34:27;0.00;1.00
14359;DHT22;7263;49.418;11.064;2024-02-26T01:36:54;0.10;1.00
14359;DHT22;7263;49.418;11.064;2024-02-26T01:41:55;0.20;1.00
14359;DHT22;7263;49.418;11.064;2024-02-26T01:44:31;0.30;3.50
14359;DHT22;7263;49.418;11.064;2024-02-26T01:46:58;0.40;16.80
14359;DHT22;7263;49.418;11.064;2024-02-26T01:49:27;0.40;24.10
14359;DHT22;7263;49.418;11.064;2024-02-26T01:51:55;0.50;31.10
14359;DHT22;7263;49.418;11.064;2024-02-26T01:54:25;0.50;22.50
14359;DHT22;7263;49.418;11.064;2024-02-26T01:56:55;0.50;20.70
14359;DHT22;7263;49.418;11.064;2024-02-26T02:01:55;0.40;12.30
14359;DHT22;7263;49.418;11.064;2024-02-26T02:04:31;0.30;9.70
14359;DHT22;7263;49.418;11.064;2024-02-26T02:06:59;0.30;10.30
14359;DHT22;7263;49.418;11.064;2024-02-26T02:09:28;0.30;11.50
14359;DHT22;7263;49.418;11.064;2024-02-26T02:11:56;0.20;7.80
14359;DHT22;7263;49.418;11.064;2024-02-26T02:14:26;0.20;11.90
14359;DHT22;7263;49.418;11.064;2024-02-26T02:16:54;0.20;14.60
14359;DHT22;7263;49.418;11.064;2024-02-26T02:19:24;0.30;14.20
14359;DHT22;7263;49.418;11.064;2024-02-26T02:21:52;0.20;15.50
14359;DHT22;7263;49.418;11.064;2024-02-26T02:24:21;0.30;18.00
14359;DHT22;7263;49.418;11.064;2024-02-26T02:29:19;0.30;22.70
14359;DHT22;7263;49.418;11.064;2024-02-26T02:31:46;0.40;26.00
14359;DHT22;7263;49.418;11.064;2024-02-26T02:34:21;0.40;29.80
14359;DHT22;7263;49.418;11.064;2024-02-26T02:36:55;0.50;32.40
14359;DHT22;7263;49.418;11.064;2024-02-26T02:41:51;0.60;41.30
14359;DHT22;7263;49.418;11.064;2024-02-26T02:44:21;0.70;44.80
14359;DHT22;7263;49.418;11.064;2024-02-26T02:46:48;0.70;46.00
14359;DHT22;7263;49.418;11.064;2024-02-26T02:49:16;0.80;46.10
14359;DHT22;7263;49.418;11.064;2024-02-26T02:51:45;0.80;44.70
14359;DHT22;7263;49.418;11.064;2024-02-26T02:54:16;0.80;48.70
14359;DHT22;7263;49.418;11.064;2024-02-26T02:59:13;0.90;46.70
14359;DHT22;7263;49.418;11.064;2024-02-26T03:01:45;1.00;45.80
14359;DHT22;7263;49.418;11.064;2024-02-26T03:04:12;1.00;45.20
14359;DHT22;7263;49.418;11.064;2024-02-26T03:09:06;1.10;42.70
14359;DHT22;7263;49.418;11.064;2024-02-26T03:11:34;1.10;42.60
14359;DHT22;7263;49.418;11.064;2024-02-26T03:18:57;1.10;38.40
14359;DHT22;7263;49.418;11.064;2024-02-26T03:21:32;1.20;36.10
14359;DHT22;7263;49.418;11.064;2024-02-26T03:24:02;1.20;37.20
14359;DHT22;7263;49.418;11.064;2024-02-26T03:26:31;1.20;36.90
14359;DHT22;7263;49.418;11.064;2024-02-26T03:29:01;1.20;36.10
14359;DHT22;7263;49.418;11.064;2024-02-26T03:31:40;1.20;34.40
14359;DHT22;7263;49.418;11.064;2024-02-26T03:34:12;1.20;32.50
14359;DHT22;7263;49.418;11.064;2024-02-26T03:39:10;1.30;27.00
14359;DHT22;7263;49.418;11.064;2024-02-26T03:44:14;1.20;18.40
14359;DHT22;7263;49.418;11.064;2024-02-26T03:46:40;1.20;12.30
14359;DHT22;7263;49.418;11.064;2024-02-26T03:49:09;1.10;5.50
14359;DHT22;7263;49.418;11.064;2024-02-26T03:51:41;1.10;4.10
14359;DHT22;7263;49.418;11.064;2024-02-26T03:56:40;1.10;3.00
14359;DHT22;7263;49.418;11.064;2024-02-26T03:59:07;1.10;7.00
14359;DHT22;7263;49.418;11.064;2024-02-26T04:01:38;1.10;2.60
14359;DHT22;7263;49.418;11.064;2024-02-26T04:04:06;1.10;1.50
14359;DHT22;7263;49.418;11.064;2024-02-26T04:09:00;1.20;10.00
14359;DHT22;7263;49.418;11.064;2024-02-26T04:19:05;1.30;8.70
14359;DHT22;7263;49.418;11.064;2024-02-26T04:21:35;1.30;10.20
14359;DHT22;7263;49.418;11.064;2024-02-26T04:24:08;1.40;10.70
14359;DHT22;7263;49.418;11.064;2024-02-26T04:26:38;1.40;12.70
14359;DHT22;7263;49.418;11.064;2024-02-26T04:31:41;1.50;20.10
14359;DHT22;7263;49.418;11.064;2024-02-26T04:34:12;1.60;25.30
14359;DHT22;7263;49.418;11.064;2024-02-26T04:36:42;1.60;26.60
14359;DHT22;7263;49.418;11.064;2024-02-26T04:39:19;1.70;27.70
14359;DHT22;7263;49.418;11.064;2024-02-26T04:49:09;1.10;24.20
14359;DHT22;7263;49.418;11.064;2024-02-26T04:51:38;1.90;24.20
14359;DHT22;7263;49.418;11.064;2024-02-26T04:54:04;1.90;22.80
14359;DHT22;7263;49.418;11.064;2024-02-26T04:56:36;1.90;19.40
14359;DHT22;7263;49.418;11.064;2024-02-26T05:08:55;2.00;20.30
14359;DHT22;7263;49.418;11.064;2024-02-26T05:13:54;2.10;20.00
14359;DHT22;7263;49.418;11.064;2024-02-26T05:18:52;2.30;18.50
14359;DHT22;7263;49.418;11.064;2024-02-26T05:26:20;2.50;5.00
14359;DHT22;7263;49.418;11.064;2024-02-26T05:29:06;2.50;1.10
14359;DHT22;7263;49.418;11.064;2024-02-26T05:31:38;2.50;1.00
14359;DHT22;7263;49.418;11.064;2024-02-26T05:36:36;2.60;1.00
14359;DHT22;7263;49.418;11.064;2024-02-26T05:41:34;2.60;1.00
14359;DHT22;7263;49.418;11.064;2024-02-26T05:46:55;2.60;1.00
14359;DHT22;7263;49.418;11.064;2024-02-26T05:54:19;2.60;1.00
14359;DHT22;7263;49.418;11.064;2024-02-26T05:56:52;2.70;1.00
14359;DHT22;7263;49.418;11.064;2024-02-26T06:01:51;2.70;1.00
14359;DHT22;7263;49.418;11.064;2024-02-26T06:04:23;2.70;1.00
14359;DHT22;7263;49.418;11.064;2024-02-26T06:06:53;2.70;1.00
14359;DHT22;7263;49.418;11.064;2024-02-26T06:12:20;2.80;1.00
14359;DHT22;7263;49.418;11.064;2024-02-26T06:14:56;2.80;1.00
14359;DHT22;7263;49.418;11.064;2024-02-26T06:17:26;2.70;1.00
14359;DHT22;7263;49.418;11.064;2024-02-26T06:22:20;2.70;1.00
14359;DHT22;7263;49.418;11.064;2024-02-26T06:24:49;2.70;1.00
14359;DHT22;7263;49.418;11.064;2024-02-26T06:27:23;2.80;1.00
14359;DHT22;7263;49.418;11.064;2024-02-26T06:29:51;2.80;1.00
14359;DHT22;7263;49.418;11.064;2024-02-26T06:32:18;2.80;1.00
14359;DHT22;7263;49.418;11.064;2024-02-26T06:42:33;3.10;1.00
14359;DHT22;7263;49.418;11.064;2024-02-26T06:45:00;3.20;1.00
14359;DHT22;7263;49.418;11.064;2024-02-26T06:47:27;3.30;1.00
14359;DHT22;7263;49.418;11.064;2024-02-26T06:57:19;3.50;1.00
14359;DHT22;7263;49.418;11.064;2024-02-26T06:59:49;3.60;1.00
14359;DHT22;7263;49.418;11.064;2024-02-26T07:02:19;3.70;1.00
14359;DHT22;7263;49.418;11.064;2024-02-26T07:07:18;3.80;1.00
14359;DHT22;7263;49.418;11.064;2024-02-26T07:09:45;3.80;1.00
14359;DHT22;7263;49.418;11.064;2024-02-26T07:14:39;3.80;1.00
14359;DHT22;7263;49.418;11.064;2024-02-26T07:17:10;3.90;1.00
14359;DHT22;7263;49.418;11.064;2024-02-26T07:19:37;4.00;1.00
14359;DHT22;7263;49.418;11.064;2024-02-26T07:24:34;4.30;99.90
14359;DHT22;7263;49.418;11.064;2024-02-26T07:27:16;4.40;99.90
14359;DHT22;7263;49.418;11.064;2024-02-26T07:29:48;4.50;99.90
14359;DHT22;7263;49.418;11.064;2024-02-26T07:32:19;4.60;99.90
14359;DHT22;7263;49.418;11.064;2024-02-26T07:37:15;4.90;99.90
14359;DHT22;7263;49.418;11.064;2024-02-26T07:49:44;5.30;1.00
14359;DHT22;7263;49.418;11.064;2024-02-26T07:52:14;5.30;1.00
14359;DHT22;7263;49.418;11.064;2024-02-26T07:57:14;5.50;1.00
14359;DHT22;7263;49.418;11.064;2024-02-26T08:02:18;5.70;1.00
14359;DHT22;7263;49.418;11.064;2024-02-26T08:05:06;5.90;1.00
14359;DHT22;7263;49.418;11.064;2024-02-26T08:15:03;6.40;99.90
14359;DHT22;7263;49.418;11.064;2024-02-26T08:17:32;6.50;99.90
14359;DHT22;7263;49.418;11.064;2024-02-26T08:19:59;6.50;1.00
14359;DHT22;7263;49.418;11.064;2024-02-26T08:22:33;6.60;99.90
14359;DHT22;7263;49.418;11.064;2024-02-26T08:25:00;6.60;99.90
14359;DHT22;7263;49.418;11.064;2024-02-26T08:27:30;6.60;1.00
14359;DHT22;7263;49.418;11.064;2024-02-26T08:29:57;6.60;1.00
14359;DHT22;7263;49.418;11.064;2024-02-26T08:32:24;6.60;99.90
14359;DHT22;7263;49.418;11.064;2024-02-26T08:34:50;6.60;99.90
14359;DHT22;7263;49.418;11.064;2024-02-26T08:37:45;6.70;99.90
14359;DHT22;7263;49.418;11.064;2024-02-26T08:40:15;6.70;99.30
14359;DHT22;7263;49.418;11.064;2024-02-26T08:42:45;6.80;99.90
14359;DHT22;7263;49.418;11.064;2024-02-26T08:45:19;6.80;1.00
14359;DHT22;7263;49.418;11.064;2024-02-26T08:47:53;7.00;99.90
14359;DHT22;7263;49.418;11.064;2024-02-26T08:52:48;7.20;1.00
14359;DHT22;7263;49.418;11.064;2024-02-26T08:57:43;7.40;99.90
14359;DHT22;7263;49.418;11.064;2024-02-26T09:00:19;7.50;99.90
14359;DHT22;7263;49.418;11.064;2024-02-26T09:07:59;7.90;99.90
14359;DHT22;7263;49.418;11.064;2024-02-26T09:10:31;8.20;1.00
14359;DHT22;7263;49.418;11.064;2024-02-26T09:13:01;8.20;1.00
14359;DHT22;7263;49.418;11.064;2024-02-26T09:15:37;8.70;1.00
14359;DHT22;7263;49.418;11.064;2024-02-26T09:18:07;8.70;1.00
14359;DHT22;7263;49.418;11.064;2024-02-26T09:20:33;9.10;1.00
14359;DHT22;7263;49.418;11.064;2024-02-26T09:23:08;9.50;92.90
14359;DHT22;7263;49.418;11.064;2024-02-26T09:25:35;9.70;99.90
14359;DHT22;7263;49.418;11.064;2024-02-26T09:28:08;10.10;99.90
14359;DHT22;7263;49.418;11.064;2024-02-26T09:30:41;10.10;99.90
14359;DHT22;7263;49.418;11.064;2024-02-26T09:33:10;10.20;99.90
14359;DHT22;7263;49.418;11.064;2024-02-26T09:35:40;10.20;99.90
14359;DHT22;7263;49.418;11.064;2024-02-26T09:38:12;10.10;1.00
14359;DHT22;7263;49.418;11.064;2024-02-26T09:40:39;10.10;1.00
14359;DHT22;7263;49.418;11.064;2024-02-26T09:43:10;9.90;1.00
14359;DHT22;7263;49.418;11.064;2024-02-26T09:45:41;9.50;99.90
14359;DHT22;7263;49.418;11.064;2024-02-26T09:48:12;9.30;1.00
14359;DHT22;7263;49.418;11.064;2024-02-26T09:50:42;9.20;1.00
14359;DHT22;7263;49.418;11.064;2024-02-26T09:53:12;9.10;1.00
14359;DHT22;7263;49.418;11.064;2024-02-26T09:55:44;9.20;1.00
14359;DHT22;7263;49.418;11.064;2024-02-26T09:58:14;9.10;1.00
14359;DHT22;7263;49.418;11.064;2024-02-26T10:00:48;9.10;1.00
14359;DHT22;7263;49.418;11.064;2024-02-26T10:03:16;9.30;1.00
14359;DHT22;7263;49.418;11.064;2024-02-26T10:05:49;9.40;1.00
14359;DHT22;7263;49.418;11.064;2024-02-26T10:08:25;9.50;99.90
14359;DHT22;7263;49.418;11.064;2024-02-26T10:10:54;12.50;8.60
14359;DHT22;7263;49.418;11.064;2024-02-26T10:13:25;9.50;1.00
14359;DHT22;7263;49.418;11.064;2024-02-26T10:15:55;9.40;1.00
14359;DHT22;7263;49.418;11.064;2024-02-26T10:18:22;9.60;1.00
14359;DHT22;7263;49.418;11.064;2024-02-26T10:20:59;9.60;1.00
14359;DHT22;7263;49.418;11.064;2024-02-26T10:23:33;9.70;99.90
14359;DHT22;7263;49.418;11.064;2024-02-26T10:26:00;9.70;1.00
14359;DHT22;7263;49.418;11.064;2024-02-26T10:28:32;9.70;1.00
14359;DHT22;7263;49.418;11.064;2024-02-26T10:30:58;9.70;99.90
14359;DHT22;7263;49.418;11.064;2024-02-26T10:33:25;9.80;99.90
14359;DHT22;7263;49.418;11.064;2024-02-26T10:36:01;9.70;1.00
14359;DHT22;7263;49.418;11.064;2024-02-26T10:38:35;9.80;1.00
14359;DHT22;7263;49.418;11.064;2024-02-26T10:41:05;9.80;99.90
14359;DHT22;7263;49.418;11.064;2024-02-26T10:43:36;9.90;1.00
14359;DHT22;7263;49.418;11.064;2024-02-26T10:46:06;10.20;99.90
14359;DHT22;7263;49.418;11.064;2024-02-26T10:48:37;10.30;1.00
14359;DHT22;7263;49.418;11.064;2024-02-26T10:51:12;10.40;99.90
14359;DHT22;7263;49.418;11.064;2024-02-26T10:53:45;10.70;1.00
14359;DHT22;7263;49.418;11.064;2024-02-26T10:56:20;10.70;1.00
14359;DHT22;7263;49.418;11.064;2024-02-26T10:58:51;10.80;1.00
14359;DHT22;7263;49.418;11.064;2024-02-26T11:01:21;10.80;1.00
14359;DHT22;7263;49.418;11.064;2024-02-26T11:03:50;10.80;1.00
14359;DHT22;7263;49.418;11.064;2024-02-26T11:06:17;10.90;1.00
14359;DHT22;7263;49.418;11.064;2024-02-26T11:08:51;11.10;1.00
14359;DHT22;7263;49.418;11.064;2024-02-26T11:11:18;11.40;99.90
14359;DHT22;7263;49.418;11.064;2024-02-26T11:13:51;11.70;99.90
14359;DHT22;7263;49.418;11.064;2024-02-26T11:16:20;11.90;99.90
14359;DHT22;7263;49.418;11.064;2024-02-26T11:18:48;12.50;99.90
14359;DHT22;7263;49.418;11.064;2024-02-26T11:21:24;12.90;99.90
14359;DHT22;7263;49.418;11.064;2024-02-26T11:24:09;13.00;99.90
14359;DHT22;7263;49.418;11.064;2024-02-26T11:26:45;13.20;99.90
14359;DHT22;7263;49.418;11.064;2024-02-26T11:29:19;13.40;99.90
14359;DHT22;7263;49.418;11.064;2024-02-26T11:32:00;13.40;99.90
14359;DHT22;7263;49.418;11.064;2024-02-26T11:34:30;13.40;99.90
14359;DHT22;7263;49.418;11.064;2024-02-26T11:37:16;13.20;1.00
14359;DHT22;7263;49.418;11.064;2024-02-26T11:39:45;13.10;99.90
14359;DHT22;7263;49.418;11.064;2024-02-26T11:42:17;13.10;1.00
14359;DHT22;7263;49.418;11.064;2024-02-26T11:44:51;12.80;99.90
14359;DHT22;7263;49.418;11.064;2024-02-26T11:47:19;12.80;99.90
14359;DHT22;7263;49.418;11.064;2024-02-26T11:49:46;12.50;99.90
14359;DHT22;7263;49.418;11.064;2024-02-26T11:52:20;12.50;99.90
14359;DHT22;7263;49.418;11.064;2024-02-26T11:54:57;12.70;99.90
14359;DHT22;7263;49.418;11.064;2024-02-26T11:57:26;12.70;99.90
14359;DHT22;7263;49.418;11.064;2024-02-26T11:59:53;13.00;99.90
14359;DHT22;7263;49.418;11.064;2024-02-26T12:02:51;13.30;99.90
14359;DHT22;7263;49.418;11.064;2024-02-26T12:05:31;13.30;99.90
14359;DHT22;7263;49.418;11.064;2024-02-26T12:08:03;13.10;99.90
14359;DHT22;7263;49.418;11.064;2024-02-26T12:10:36;13.20;1.00
14359;DHT22;7263;49.418;11.064;2024-02-26T12:13:10;13.20;70.90
14359;DHT22;7263;49.418;11.064;2024-02-26T12:15:39;13.10;99.90
14359;DHT22;7263;49.418;11.064;2024-02-26T12:18:07;13.10;99.90
14359;DHT22;7263;49.418;11.064;2024-02-26T12:20:35;13.10;1.00
14359;DHT22;7263;49.418;11.064;2024-02-26T12:23:07;13.20;19.00
14359;DHT22;7263;49.418;11.064;2024-02-26T12:25:35;13.40;99.90
14359;DHT22;7263;49.418;11.064;2024-02-26T12:28:04;13.30;99.90
14359;DHT22;7263;49.418;11.064;2024-02-26T12:30:36;13.20;99.90
14359;DHT22;7263;49.418;11.064;2024-02-26T12:33:05;13.20;1.00
14359;DHT22;7263;49.418;11.064;2024-02-26T12:35:35;12.90;99.90
14359;DHT22;7263;49.418;11.064;2024-02-26T12:38:03;12.70;1.00
14359;DHT22;7263;49.418;11.064;2024-02-26T12:40:35;12.30;99.90
14359;DHT22;7263;49.418;11.064;2024-02-26T12:43:05;12.10;99.90
14359;DHT22;7263;49.418;11.064;2024-02-26T12:45:35;12.10;99.90
14359;DHT22;7263;49.418;11.064;2024-02-26T12:50:44;12.00;99.90
14359;DHT22;7263;49.418;11.064;2024-02-26T12:53:17;12.10;99.90
14359;DHT22;7263;49.418;11.064;2024-02-26T12:55:48;12.10;99.90
14359;DHT22;7263;49.418;11.064;2024-02-26T12:58:18;12.10;1.00
14359;DHT22;7263;49.418;11.064;2024-02-26T13:00:56;12.10;1.00
14359;DHT22;7263;49.418;11.064;2024-02-26T13:03:32;12.10;1.00
14359;DHT22;7263;49.418;11.064;2024-02-26T13:06:00;12.10;1.00
14359;DHT22;7263;49.418;11.064;2024-02-26T13:11:09;12.10;1.00
14359;DHT22;7263;49.418;11.064;2024-02-26T13:13:40;12.10;99.90
14359;DHT22;7263;49.418;11.064;2024-02-26T13:16:09;12.00;99.90
14359;DHT22;7263;49.418;11.064;2024-02-26T13:18:36;12.00;1.00
14359;DHT22;7263;49.418;11.064;2024-02-26T13:21:10;12.00;99.90
14359;DHT22;7263;49.418;11.064;2024-02-26T13:23:38;12.00;1.00
14359;DHT22;7263;49.418;11.064;2024-02-26T13:26:22;12.10;1.00
14359;DHT22;7263;49.418;11.064;2024-02-26T13:29:04;12.10;99.90
14359;DHT22;7263;49.418;11.064;2024-02-26T13:31:33;12.20;1.00
14359;DHT22;7263;49.418;11.064;2024-02-26T13:34:25;12.20;1.00
14359;DHT22;7263;49.418;11.064;2024-02-26T13:36:54;12.10;99.90
14359;DHT22;7263;49.418;11.064;2024-02-26T13:39:22;12.10;99.90
14359;DHT22;7263;49.418;11.064;2024-02-26T13:41:55;12.20;1.00
14359;DHT22;7263;49.418;11.064;2024-02-26T13:44:25;12.10;99.90
14359;DHT22;7263;49.418;11.064;2024-02-26T13:46:52;12.10;17.10
14359;DHT22;7263;49.418;11.064;2024-02-26T13:49:20;12.10;1.00
14359;DHT22;7263;49.418;11.064;2024-02-26T13:54:17;12.10;99.90
14359;DHT22;7263;49.418;11.064;2024-02-26T13:56:47;12.00;1.00
14359;DHT22;7263;49.418;11.064;2024-02-26T13:59:15;12.10;24.90
14359;DHT22;7263;49.418;11.064;2024-02-26T14:01:44;12.00;99.90
14359;DHT22;7263;49.418;11.064;2024-02-26T14:04:14;12.10;99.90
14359;DHT22;7263;49.418;11.064;2024-02-26T14:09:15;12.10;30.60
14359;DHT22;7263;49.418;11.064;2024-02-26T14:11:48;12.10;1.00
14359;DHT22;7263;49.418;11.064;2024-02-26T14:14:16;12.20;1.00
14359;DHT22;7263;49.418;11.064;2024-02-26T14:16:45;12.10;99.90
14359;DHT22;7263;49.418;11.064;2024-02-26T14:24:17;12.20;1.00
14359;DHT22;7263;49.418;11.064;2024-02-26T14:26:47;12.20;99.90
14359;DHT22;7263;49.418;11.064;2024-02-26T14:29:13;12.30;1.00
14359;DHT22;7263;49.418;11.064;2024-02-26T14:32:00;12.20;1.00
14359;DHT22;7263;49.418;11.064;2024-02-26T14:34:32;12.30;99.90
14359;DHT22;7263;49.418;11.064;2024-02-26T14:37:02;12.30;1.00
14359;DHT22;7263;49.418;11.064;2024-02-26T14:39:32;12.20;1.00
14359;DHT22;7263;49.418;11.064;2024-02-26T14:42:00;12.30;27.90
14359;DHT22;7263;49.418;11.064;2024-02-26T14:47:01;12.20;1.00
14359;DHT22;7263;49.418;11.064;2024-02-26T14:49:28;12.20;99.90
14359;DHT22;7263;49.418;11.064;2024-02-26T14:54:30;12.00;59.40
14359;DHT22;7263;49.418;11.064;2024-02-26T14:57:04;11.80;54.40
14359;DHT22;7263;49.418;11.064;2024-02-26T14:59:34;11.80;99.90
14359;DHT22;7263;49.418;11.064;2024-02-26T15:02:16;11.70;1.00
14359;DHT22;7263;49.418;11.064;2024-02-26T15:04:50;11.70;1.00
14359;DHT22;7263;49.418;11.064;2024-02-26T15:07:26;11.70;1.00
14359;DHT22;7263;49.418;11.064;2024-02-26T15:09:52;11.60;1.00
14359;DHT22;7263;49.418;11.064;2024-02-26T15:12:28;11.50;1.00
14359;DHT22;7263;49.418;11.064;2024-02-26T15:14:59;11.50;1.00
14359;DHT22;7263;49.418;11.064;2024-02-26T15:17:47;11.50;99.90
14359;DHT22;7263;49.418;11.064;2024-02-26T15:20:18;11.50;99.90
14359;DHT22;7263;49.418;11.064;2024-02-26T15:25:25;11.50;1.00
14359;DHT22;7263;49.418;11.064;2024-02-26T15:33:02;11.30;99.90
14359;DHT22;7263;49.418;11.064;2024-02-26T15:35:32;11.30;1.00
14359;DHT22;7263;49.418;11.064;2024-02-26T15:38:01;11.20;99.90
14359;DHT22;7263;49.418;11.064;2024-02-26T15:43:00;11.10;99.90
14359;DHT22;7263;49.418;11.064;2024-02-26T15:45:27;11.10;1.00
14359;DHT22;7263;49.418;11.064;2024-02-26T15:47:59;11.10;1.00
14359;DHT22;7263;49.418;11.064;2024-02-26T15:50:26;11.10;1.00
14359;DHT22;7263;49.418;11.064;2024-02-26T15:52:53;11.00;99.90
14359;DHT22;7263;49.418;11.064;2024-02-26T15:55:23;11.00;99.90
14359;DHT22;7263;49.418;11.064;2024-02-26T16:05:27;10.80;1.00
14359;DHT22;7263;49.418;11.064;2024-02-26T16:07:56;10.80;1.00
14359;DHT22;7263;49.418;11.064;2024-02-26T16:10:24;10.70;1.00
14359;DHT22;7263;49.418;11.064;2024-02-26T16:12:54;10.70;99.90
14359;DHT22;7263;49.418;11.064;2024-02-26T16:15:28;10.50;1.00
14359;DHT22;7263;49.418;11.064;2024-02-26T16:18:00;10.60;1.00
14359;DHT22;7263;49.418;11.064;2024-02-26T16:20:28;10.50;1.00
14359;DHT22;7263;49.418;11.064;2024-02-26T16:32:54;10.30;1.00
14359;DHT22;7263;49.418;11.064;2024-02-26T16:38:06;10.20;64.40
14359;DHT22;7263;49.418;11.064;2024-02-26T16:50:32;10.00;1.00
14359;DHT22;7263;49.418;11.064;2024-02-26T16:52:59;10.00;1.00
14359;DHT22;7263;49.418;11.064;2024-02-26T16:55:27;10.00;99.90
14359;DHT22;7263;49.418;11.064;2024-02-26T16:57:54;9.90;99.90
14359;DHT22;7263;49.418;11.064;2024-02-26T17:00:22;9.90;29.90
14359;DHT22;7263;49.418;11.064;2024-02-26T17:05:23;9.80;99.90
14359;DHT22;7263;49.418;11.064;2024-02-26T17:10:19;9.70;1.00
14359;DHT22;7263;49.418;11.064;2024-02-26T17:12:55;9.70;99.90
14359;DHT22;7263;49.418;11.064;2024-02-26T17:15:23;9.70;90.70
14359;DHT22;7263;49.418;11.064;2024-02-26T17:17:54;9.60;99.90
14359;DHT22;7263;49.418;11.064;2024-02-26T17:22:55;9.50;1.00
14359;DHT22;7263;49.418;11.064;2024-02-26T17:27:51;9.40;99.90
14359;DHT22;7263;49.418;11.064;2024-02-26T17:30:40;9.40;99.90
14359;DHT22;7263;49.418;11.064;2024-02-26T17:33:06;9.30;1.00
14359;DHT22;7263;49.418;11.064;2024-02-26T17:35:33;9.30;1.00
14359;DHT22;7263;49.418;11.064;2024-02-26T17:38:06;9.20;1.00
14359;DHT22;7263;49.418;11.064;2024-02-26T17:43:01;9.10;1.00
14359;DHT22;7263;49.418;11.064;2024-02-26T17:45:29;9.10;1.00
14359;DHT22;7263;49.418;11.064;2024-02-26T17:55:36;8.90;49.50
14359;DHT22;7263;49.418;11.064;2024-02-26T17:58:09;8.90;99.90
14359;DHT22;7263;49.418;11.064;2024-02-26T18:00:40;8.80;1.00
14359;DHT22;7263;49.418;11.064;2024-02-26T18:05:39;8.70;99.90
14359;DHT22;7263;49.418;11.064;2024-02-26T18:08:10;6.80;99.90
14359;DHT22;7263;49.418;11.064;2024-02-26T18:15:32;8.60;99.90
14359;DHT22;7263;49.418;11.064;2024-02-26T18:18:04;8.60;1.00
14359;DHT22;7263;49.418;11.064;2024-02-26T18:20:31;8.50;99.90
14359;DHT22;7263;49.418;11.064;2024-02-26T18:23:12;8.50;38.40
14359;DHT22;7263;49.418;11.064;2024-02-26T18:25:44;8.40;39.90
14359;DHT22;7263;49.418;11.064;2024-02-26T18:30:39;8.40;1.00
14359;DHT22;7263;49.418;11.064;2024-02-26T18:35:40;8.30;1.00
14359;DHT22;7263;49.418;11.064;2024-02-26T18:38:07;8.30;1.00
14359;DHT22;7263;49.418;11.064;2024-02-26T18:40:43;8.30;99.90
14359;DHT22;7263;49.418;11.064;2024-02-26T18:45:51;8.20;99.90
14359;DHT22;7263;49.418;11.064;2024-02-26T18:48:22;8.20;99.90
14359;DHT22;7263;49.418;11.064;2024-02-26T18:50:49;8.20;99.90
14359;DHT22;7263;49.418;11.064;2024-02-26T18:55:52;8.10;1.00
14359;DHT22;7263;49.418;11.064;2024-02-26T18:58:21;8.10;1.00
14359;DHT22;7263;49.418;11.064;2024-02-26T19:00:55;8.00;99.90
14359;DHT22;7263;49.418;11.064;2024-02-26T19:03:23;8.00;1.00
14359;DHT22;7263;49.418;11.064;2024-02-26T19:13:19;7.90;1.00
14359;DHT22;7263;49.418;11.064;2024-02-26T19:15:49;7.90;99.90
14359;DHT22;7263;49.418;11.064;2024-02-26T19:18:19;7.90;99.90
14359;DHT22;7263;49.418;11.064;2024-02-26T19:25:44;7.80;1.00
14359;DHT22;7263;49.418;11.064;2024-02-26T19:30:46;7.70;99.90
14359;DHT22;7263;49.418;11.064;2024-02-26T19:33:23;7.70;36.30
14359;DHT22;7263;49.418;11.064;2024-02-26T19:35:49;7.70;1.00
14359;DHT22;7263;49.418;11.064;2024-02-26T19:38:19;7.60;99.90
14359;DHT22;7263;49.418;11.064;2024-02-26T19:40:48;7.60;99.90
14359;DHT22;7263;49.418;11.064;2024-02-26T19:43:15;7.60;1.00
14359;DHT22;7263;49.418;11.064;2024-02-26T19:50:42;7.50;99.90
14359;DHT22;7263;49.418;11.064;2024-02-26T19:53:15;7.50;1.00
14359;DHT22;7263;49.418;11.064;2024-02-26T19:58:24;7.40;1.00
14359;DHT22;7263;49.418;11.064;2024-02-26T20:00:54;7.40;99.90
14359;DHT22;7263;49.418;11.064;2024-02-26T20:06:02;7.40;99.90
14359;DHT22;7263;49.418;11.064;2024-02-26T20:08:40;7.30;99.90
14359;DHT22;7263;49.418;11.064;2024-02-26T20:16:11;7.30;1.00
14359;DHT22;7263;49.418;11.064;2024-02-26T20:18:38;7.20;99.90
14359;DHT22;7263;49.418;11.064;2024-02-26T20:21:06;7.20;1.00
14359;DHT22;7263;49.418;11.064;2024-02-26T20:26:03;7.20;99.90
14359;DHT22;7263;49.418;11.064;2024-02-26T20:28:36;7.20;99.90
14359;DHT22;7263;49.418;11.064;2024-02-26T20:31:13;7.10;1.00
14359;DHT22;7263;49.418;11.064;2024-02-26T20:33:45;7.10;6.90
14359;DHT22;7263;49.418;11.064;2024-02-26T20:36:17;7.10;99.90
14359;DHT22;7263;49.418;11.064;2024-02-26T20:38:47;7.00;99.90
14359;DHT22;7263;49.418;11.064;2024-02-26T20:41:15;7.00;1.00
14359;DHT22;7263;49.418;11.064;2024-02-26T20:43:45;7.00;1.00
14359;DHT22;7263;49.418;11.064;2024-02-26T20:48:44;6.90;72.40
14359;DHT22;7263;49.418;11.064;2024-02-26T20:51:16;6.90;1.00
14359;DHT22;7263;49.418;11.064;2024-02-26T20:53:43;6.80;1.00
14359;DHT22;7263;49.418;11.064;2024-02-26T20:58:40;6.80;1.00
14359;DHT22;7263;49.418;11.064;2024-02-26T21:01:19;6.80;99.90
14359;DHT22;7263;49.418;11.064;2024-02-26T21:03:46;6.80;99.90
14359;DHT22;7263;49.418;11.064;2024-02-26T21:06:22;6.70;1.00
14359;DHT22;7263;49.418;11.064;2024-02-26T21:08:52;6.70;32.40
14359;DHT22;7263;49.418;11.064;2024-02-26T21:11:24;6.70;1.00
14359;DHT22;7263;49.418;11.064;2024-02-26T21:16:28;6.60;99.90
14359;DHT22;7263;49.418;11.064;2024-02-26T21:18:55;6.60;1.00
14359;DHT22;7263;49.418;11.064;2024-02-26T21:21:33;6.60;1.00
14359;DHT22;7263;49.418;11.064;2024-02-26T21:28:58;6.50;1.00
14359;DHT22;7263;49.418;11.064;2024-02-26T21:31:27;6.50;1.00
14359;DHT22;7263;49.418;11.064;2024-02-26T21:33:54;6.40;1.00
14359;DHT22;7263;49.418;11.064;2024-02-26T21:36:25;6.40;99.90
14359;DHT22;7263;49.418;11.064;2024-02-26T21:43:46;6.30;99.90
14359;DHT22;7263;49.418;11.064;2024-02-26T21:48:45;6.30;99.90
14359;DHT22;7263;49.418;11.064;2024-02-26T21:53:43;6.20;1.00
14359;DHT22;7263;49.418;11.064;2024-02-26T22:01:12;6.20;1.00
14359;DHT22;7263;49.418;11.064;2024-02-26T22:03:44;6.20;99.90
14359;DHT22;7263;49.418;11.064;2024-02-26T22:06:13;6.20;99.90